sensor_id;sensor_type;location;lat;lon;timestamp;P1;durP1;ratioP1;P2;durP2;ratioP2
66970;SDS011;53901;51.466;-2.588;2022-08-04T00:01:39;11.32;;;2.10;;
66970;SDS011;53901;51.466;-2.588;2022-08-04T00:04:12;9.95;;;2.33;;
66970;SDS011;53901;51.466;-2.588;2022-08-04T00:09:26;15.05;;;2.55;;
66970;SDS011;53901;51.466;-2.588;2022-08-04T00:11:57;12.85;;;2.60;;
66970;SDS011;53901;51.466;-2.588;2022-08-04T00:14:25;14.50;;;2.65;;
66970;SDS011;53901;51.466;-2.588;2022-08-04T00:16:52;15.77;;;2.47;;
66970;SDS011;53901;51.466;-2.588;2022-08-04T00:19:31;13.30;;;2.33;;
66970;SDS011;53901;51.466;-2.588;2022-08-04T00:22:02;9.82;;;2.28;;
66970;SDS011;53901;51.466;-2.588;2022-08-04T00:24:29;8.50;;;2.40;;
66970;SDS011;53901;51.466;-2.588;2022-08-04T00:27:01;9.98;;;2.50;;
66970;SDS011;53901;51.466;-2.588;2022-08-04T00:29:36;12.32;;;2.33;;
66970;SDS011;53901;51.466;-2.588;2022-08-04T00:32:03;10.63;;;2.40;;
66970;SDS011;53901;51.466;-2.588;2022-08-04T00:34:29;12.02;;;2.67;;
66970;SDS011;53901;51.466;-2.588;2022-08-04T00:36:56;10.35;;;2.60;;
66970;SDS011;53901;51.466;-2.588;2022-08-04T00:39:23;16.38;;;3.25;;
66970;SDS011;53901;51.466;-2.588;2022-08-04T00:44:35;8.68;;;2.67;;
66970;SDS011;53901;51.466;-2.588;2022-08-04T00:52:53;13.02;;;2.70;;
66970;SDS011;53901;51.466;-2.588;2022-08-04T01:01:00;13.02;;;2.85;;
66970;SDS011;53901;51.466;-2.588;2022-08-04T01:11:37;17.88;;;3.10;;
66970;SDS011;53901;51.466;-2.588;2022-08-04T01:16:48;14.07;;;3.78;;
66970;SDS011;53901;51.466;-2.588;2022-08-04T01:20:05;14.93;;;3.47;;
66970;SDS011;53901;51.466;-2.588;2022-08-04T01:28:13;13.60;;;3.20;;
66970;SDS011;53901;51.466;-2.588;2022-08-04T01:31:05;16.60;;;3.67;;
66970;SDS011;53901;51.466;-2.588;2022-08-04T01:33:48;14.35;;;3.60;;
66970;SDS011;53901;51.466;-2.588;2022-08-04T01:36:15;9.35;;;3.00;;
66970;SDS011;53901;51.466;-2.588;2022-08-04T01:38:42;11.98;;;3.28;;
66970;SDS011;53901;51.466;-2.588;2022-08-04T01:41:08;18.95;;;3.30;;
66970;SDS011;53901;51.466;-2.588;2022-08-04T01:43:39;10.15;;;3.20;;
66970;SDS011;53901;51.466;-2.588;2022-08-04T01:46:05;12.98;;;3.38;;
66970;SDS011;53901;51.466;-2.588;2022-08-04T01:48:31;12.23;;;3.33;;
66970;SDS011;53901;51.466;-2.588;2022-08-04T01:50:57;14.43;;;3.65;;
66970;SDS011;53901;51.466;-2.588;2022-08-04T01:53:33;14.45;;;4.10;;
66970;SDS011;53901;51.466;-2.588;2022-08-04T01:56:03;12.27;;;3.60;;
66970;SDS011;53901;51.466;-2.588;2022-08-04T01:58:32;12.50;;;4.00;;
66970;SDS011;53901;51.466;-2.588;2022-08-04T02:03:36;11.80;;;3.80;;
66970;SDS011;53901;51.466;-2.588;2022-08-04T02:11:42;11.82;;;3.40;;
66970;SDS011;53901;51.466;-2.588;2022-08-04T02:14:30;12.63;;;3.25;;
66970;SDS011;53901;51.466;-2.588;2022-08-04T02:17:14;9.52;;;3.15;;
66970;SDS011;53901;51.466;-2.588;2022-08-04T02:22:18;13.77;;;3.22;;
66970;SDS011;53901;51.466;-2.588;2022-08-04T02:24:48;13.15;;;3.47;;
66970;SDS011;53901;51.466;-2.588;2022-08-04T02:27:14;8.15;;;2.80;;
66970;SDS011;53901;51.466;-2.588;2022-08-04T02:29:51;8.60;;;3.13;;
66970;SDS011;53901;51.466;-2.588;2022-08-04T02:32:31;10.68;;;2.80;;
66970;SDS011;53901;51.466;-2.588;2022-08-04T02:37:54;14.07;;;2.92;;
66970;SDS011;53901;51.466;-2.588;2022-08-04T02:40:30;10.98;;;3.10;;
66970;SDS011;53901;51.466;-2.588;2022-08-04T02:42:57;10.25;;;2.72;;
66970;SDS011;53901;51.466;-2.588;2022-08-04T02:45:24;13.35;;;2.90;;
66970;SDS011;53901;51.466;-2.588;2022-08-04T02:47:50;14.60;;;2.90;;
66970;SDS011;53901;51.466;-2.588;2022-08-04T02:50:18;9.43;;;2.38;;
66970;SDS011;53901;51.466;-2.588;2022-08-04T02:52:44;9.93;;;2.65;;
66970;SDS011;53901;51.466;-2.588;2022-08-04T02:55:11;14.73;;;2.80;;
66970;SDS011;53901;51.466;-2.588;2022-08-04T02:57:37;7.10;;;2.50;;
66970;SDS011;53901;51.466;-2.588;2022-08-04T03:00:11;16.27;;;2.90;;
66970;SDS011;53901;51.466;-2.588;2022-08-04T03:05:24;9.88;;;3.00;;
66970;SDS011;53901;51.466;-2.588;2022-08-04T03:13:35;15.18;;;3.20;;
66970;SDS011;53901;51.466;-2.588;2022-08-04T03:29:49;15.73;;;3.65;;
66970;SDS011;53901;51.466;-2.588;2022-08-04T03:49:51;9.95;;;2.50;;
66970;SDS011;53901;51.466;-2.588;2022-08-04T04:22:59;10.40;;;3.42;;
66970;SDS011;53901;51.466;-2.588;2022-08-04T04:31:12;13.15;;;3.35;;
66970;SDS011;53901;51.466;-2.588;2022-08-04T04:42:16;12.00;;;3.60;;
66970;SDS011;53901;51.466;-2.588;2022-08-04T04:48:07;8.70;;;3.03;;
66970;SDS011;53901;51.466;-2.588;2022-08-04T04:53:26;14.07;;;3.45;;
66970;SDS011;53901;51.466;-2.588;2022-08-04T04:56:02;14.93;;;3.65;;
66970;SDS011;53901;51.466;-2.588;2022-08-04T04:58:30;14.75;;;3.88;;
66970;SDS011;53901;51.466;-2.588;2022-08-04T05:14:31;11.75;;;3.60;;
66970;SDS011;53901;51.466;-2.588;2022-08-04T05:17:03;15.88;;;3.58;;
66970;SDS011;53901;51.466;-2.588;2022-08-04T05:23:09;9.30;;;3.72;;
66970;SDS011;53901;51.466;-2.588;2022-08-04T05:25:32;14.35;;;4.43;;
66970;SDS011;53901;51.466;-2.588;2022-08-04T05:28:02;14.00;;;4.20;;
66970;SDS011;53901;51.466;-2.588;2022-08-04T05:30:33;12.10;;;4.25;;
66970;SDS011;53901;51.466;-2.588;2022-08-04T05:33:12;10.82;;;4.20;;
66970;SDS011;53901;51.466;-2.588;2022-08-04T05:35:40;14.45;;;5.22;;
66970;SDS011;53901;51.466;-2.588;2022-08-04T05:38:09;12.13;;;4.18;;
66970;SDS011;53901;51.466;-2.588;2022-08-04T05:40:36;14.48;;;3.95;;
66970;SDS011;53901;51.466;-2.588;2022-08-04T05:43:02;9.10;;;3.70;;
66970;SDS011;53901;51.466;-2.588;2022-08-04T05:45:29;13.25;;;3.72;;
66970;SDS011;53901;51.466;-2.588;2022-08-04T05:47:54;12.05;;;3.72;;
66970;SDS011;53901;51.466;-2.588;2022-08-04T05:50:20;9.77;;;3.45;;
66970;SDS011;53901;51.466;-2.588;2022-08-04T05:52:46;17.60;;;3.67;;
66970;SDS011;53901;51.466;-2.588;2022-08-04T05:55:14;11.10;;;3.63;;
66970;SDS011;53901;51.466;-2.588;2022-08-04T05:57:40;13.38;;;4.18;;
66970;SDS011;53901;51.466;-2.588;2022-08-04T06:00:06;15.48;;;3.92;;
66970;SDS011;53901;51.466;-2.588;2022-08-04T06:02:33;13.88;;;4.20;;
66970;SDS011;53901;51.466;-2.588;2022-08-04T06:04:59;12.10;;;3.90;;
66970;SDS011;53901;51.466;-2.588;2022-08-04T06:07:25;11.90;;;3.28;;
66970;SDS011;53901;51.466;-2.588;2022-08-04T06:09:51;16.33;;;3.60;;
66970;SDS011;53901;51.466;-2.588;2022-08-04T06:12:17;11.13;;;3.40;;
66970;SDS011;53901;51.466;-2.588;2022-08-04T06:14:50;19.33;;;3.58;;
66970;SDS011;53901;51.466;-2.588;2022-08-04T06:17:20;13.85;;;3.30;;
66970;SDS011;53901;51.466;-2.588;2022-08-04T06:19:48;10.05;;;3.15;;
66970;SDS011;53901;51.466;-2.588;2022-08-04T06:22:16;10.55;;;2.97;;
66970;SDS011;53901;51.466;-2.588;2022-08-04T06:24:42;8.05;;;2.65;;
66970;SDS011;53901;51.466;-2.588;2022-08-04T06:27:09;7.03;;;2.60;;
66970;SDS011;53901;51.466;-2.588;2022-08-04T06:29:35;6.93;;;2.35;;
66970;SDS011;53901;51.466;-2.588;2022-08-04T06:32:04;9.70;;;2.75;;
66970;SDS011;53901;51.466;-2.588;2022-08-04T06:34:55;9.68;;;2.65;;
66970;SDS011;53901;51.466;-2.588;2022-08-04T06:37:22;7.70;;;2.40;;
66970;SDS011;53901;51.466;-2.588;2022-08-04T06:39:48;7.57;;;2.60;;
66970;SDS011;53901;51.466;-2.588;2022-08-04T06:42:16;8.90;;;2.70;;
66970;SDS011;53901;51.466;-2.588;2022-08-04T06:44:43;10.88;;;2.80;;
66970;SDS011;53901;51.466;-2.588;2022-08-04T06:47:10;10.18;;;3.00;;
66970;SDS011;53901;51.466;-2.588;2022-08-04T06:49:36;7.97;;;2.97;;
66970;SDS011;53901;51.466;-2.588;2022-08-04T06:52:02;10.40;;;3.20;;
66970;SDS011;53901;51.466;-2.588;2022-08-04T06:54:29;10.75;;;2.60;;
66970;SDS011;53901;51.466;-2.588;2022-08-04T06:56:55;10.60;;;2.70;;
66970;SDS011;53901;51.466;-2.588;2022-08-04T06:59:22;8.32;;;2.88;;
66970;SDS011;53901;51.466;-2.588;2022-08-04T07:01:48;6.55;;;2.42;;
66970;SDS011;53901;51.466;-2.588;2022-08-04T07:04:14;9.02;;;2.50;;
66970;SDS011;53901;51.466;-2.588;2022-08-04T07:06:40;9.70;;;2.78;;
66970;SDS011;53901;51.466;-2.588;2022-08-04T07:09:05;10.52;;;2.60;;
66970;SDS011;53901;51.466;-2.588;2022-08-04T07:11:32;6.85;;;2.30;;
66970;SDS011;53901;51.466;-2.588;2022-08-04T07:13:57;8.73;;;2.38;;
66970;SDS011;53901;51.466;-2.588;2022-08-04T07:16:23;8.18;;;2.30;;
66970;SDS011;53901;51.466;-2.588;2022-08-04T07:18:49;8.80;;;2.40;;
66970;SDS011;53901;51.466;-2.588;2022-08-04T07:21:21;8.48;;;2.20;;
66970;SDS011;53901;51.466;-2.588;2022-08-04T07:23:48;10.10;;;2.85;;
66970;SDS011;53901;51.466;-2.588;2022-08-04T07:26:14;9.90;;;2.33;;
66970;SDS011;53901;51.466;-2.588;2022-08-04T07:28:42;9.55;;;2.58;;
66970;SDS011;53901;51.466;-2.588;2022-08-04T07:31:09;11.00;;;2.78;;
66970;SDS011;53901;51.466;-2.588;2022-08-04T07:33:36;9.18;;;2.58;;
66970;SDS011;53901;51.466;-2.588;2022-08-04T07:36:02;10.63;;;3.33;;
66970;SDS011;53901;51.466;-2.588;2022-08-04T07:38:28;9.70;;;3.10;;
66970;SDS011;53901;51.466;-2.588;2022-08-04T07:40:54;7.07;;;2.90;;
66970;SDS011;53901;51.466;-2.588;2022-08-04T07:43:19;6.50;;;2.10;;
66970;SDS011;53901;51.466;-2.588;2022-08-04T07:45:45;7.75;;;1.95;;
66970;SDS011;53901;51.466;-2.588;2022-08-04T07:48:11;6.82;;;2.08;;
66970;SDS011;53901;51.466;-2.588;2022-08-04T07:50:36;5.43;;;1.70;;
66970;SDS011;53901;51.466;-2.588;2022-08-04T07:53:06;7.43;;;2.05;;
66970;SDS011;53901;51.466;-2.588;2022-08-04T07:55:32;6.78;;;2.20;;
66970;SDS011;53901;51.466;-2.588;2022-08-04T07:57:57;6.30;;;2.10;;
66970;SDS011;53901;51.466;-2.588;2022-08-04T08:00:23;5.72;;;2.25;;
66970;SDS011;53901;51.466;-2.588;2022-08-04T08:02:51;10.38;;;2.47;;
66970;SDS011;53901;51.466;-2.588;2022-08-04T08:05:21;7.13;;;1.95;;
66970;SDS011;53901;51.466;-2.588;2022-08-04T08:07:50;5.97;;;1.88;;
66970;SDS011;53901;51.466;-2.588;2022-08-04T08:10:16;6.88;;;1.90;;
66970;SDS011;53901;51.466;-2.588;2022-08-04T08:12:42;5.80;;;2.30;;
66970;SDS011;53901;51.466;-2.588;2022-08-04T08:15:09;9.23;;;2.17;;
66970;SDS011;53901;51.466;-2.588;2022-08-04T08:17:36;7.68;;;2.38;;
66970;SDS011;53901;51.466;-2.588;2022-08-04T08:20:02;6.32;;;2.00;;
66970;SDS011;53901;51.466;-2.588;2022-08-04T08:22:28;8.35;;;1.77;;
66970;SDS011;53901;51.466;-2.588;2022-08-04T08:24:55;4.72;;;1.80;;
66970;SDS011;53901;51.466;-2.588;2022-08-04T08:27:21;4.95;;;2.03;;
66970;SDS011;53901;51.466;-2.588;2022-08-04T08:29:47;7.10;;;2.08;;
66970;SDS011;53901;51.466;-2.588;2022-08-04T08:32:13;6.45;;;1.77;;
66970;SDS011;53901;51.466;-2.588;2022-08-04T08:34:39;5.85;;;1.85;;
66970;SDS011;53901;51.466;-2.588;2022-08-04T08:39:48;7.00;;;1.65;;
66970;SDS011;53901;51.466;-2.588;2022-08-04T08:45:22;9.85;;;2.00;;
66970;SDS011;53901;51.466;-2.588;2022-08-04T08:59:04;8.02;;;2.42;;
66970;SDS011;53901;51.466;-2.588;2022-08-04T09:17:39;6.15;;;1.75;;
66970;SDS011;53901;51.466;-2.588;2022-08-04T09:20:30;3.85;;;1.60;;
66970;SDS011;53901;51.466;-2.588;2022-08-04T09:28:35;6.20;;;1.35;;
66970;SDS011;53901;51.466;-2.588;2022-08-04T09:31:10;4.97;;;1.48;;
66970;SDS011;53901;51.466;-2.588;2022-08-04T09:37:03;3.88;;;1.15;;
66970;SDS011;53901;51.466;-2.588;2022-08-04T09:39:48;3.30;;;1.10;;
66970;SDS011;53901;51.466;-2.588;2022-08-04T09:45:55;3.10;;;1.10;;
66970;SDS011;53901;51.466;-2.588;2022-08-04T09:48:46;4.55;;;1.30;;
66970;SDS011;53901;51.466;-2.588;2022-08-04T09:54:26;4.97;;;1.20;;
66970;SDS011;53901;51.466;-2.588;2022-08-04T10:00:14;3.28;;;1.02;;
66970;SDS011;53901;51.466;-2.588;2022-08-04T10:02:50;2.45;;;1.10;;
66970;SDS011;53901;51.466;-2.588;2022-08-04T10:05:22;4.95;;;1.10;;
66970;SDS011;53901;51.466;-2.588;2022-08-04T10:07:56;3.65;;;1.05;;
66970;SDS011;53901;51.466;-2.588;2022-08-04T10:13:15;3.10;;;0.90;;
66970;SDS011;53901;51.466;-2.588;2022-08-04T10:16:29;3.17;;;1.08;;
66970;SDS011;53901;51.466;-2.588;2022-08-04T10:22:56;5.93;;;0.95;;
66970;SDS011;53901;51.466;-2.588;2022-08-04T10:27:48;2.47;;;0.90;;
66970;SDS011;53901;51.466;-2.588;2022-08-04T10:30:17;3.22;;;1.02;;
66970;SDS011;53901;51.466;-2.588;2022-08-04T10:36:23;4.47;;;1.02;;
66970;SDS011;53901;51.466;-2.588;2022-08-04T10:46:38;3.35;;;0.98;;
66970;SDS011;53901;51.466;-2.588;2022-08-04T10:50:00;3.13;;;1.02;;
66970;SDS011;53901;51.466;-2.588;2022-08-04T10:57:28;2.38;;;0.90;;
66970;SDS011;53901;51.466;-2.588;2022-08-04T11:00:09;1.95;;;0.88;;
66970;SDS011;53901;51.466;-2.588;2022-08-04T11:05:28;3.38;;;0.90;;
66970;SDS011;53901;51.466;-2.588;2022-08-04T11:07:58;4.10;;;1.10;;
66970;SDS011;53901;51.466;-2.588;2022-08-04T11:10:27;2.55;;;0.75;;
66970;SDS011;53901;51.466;-2.588;2022-08-04T11:12:56;2.42;;;0.93;;
66970;SDS011;53901;51.466;-2.588;2022-08-04T11:15:26;6.75;;;1.10;;
66970;SDS011;53901;51.466;-2.588;2022-08-04T11:17:56;3.28;;;1.02;;
66970;SDS011;53901;51.466;-2.588;2022-08-04T11:23:05;4.07;;;0.90;;
66970;SDS011;53901;51.466;-2.588;2022-08-04T11:28:22;3.10;;;0.80;;
66970;SDS011;53901;51.466;-2.588;2022-08-04T11:34:21;5.55;;;1.10;;
66970;SDS011;53901;51.466;-2.588;2022-08-04T11:42:12;6.13;;;1.10;;
66970;SDS011;53901;51.466;-2.588;2022-08-04T11:44:46;4.68;;;1.05;;
66970;SDS011;53901;51.466;-2.588;2022-08-04T11:49:51;4.43;;;1.00;;
66970;SDS011;53901;51.466;-2.588;2022-08-04T11:52:20;4.28;;;1.00;;
66970;SDS011;53901;51.466;-2.588;2022-08-04T11:54:46;4.35;;;0.93;;
66970;SDS011;53901;51.466;-2.588;2022-08-04T11:57:13;3.15;;;1.20;;
66970;SDS011;53901;51.466;-2.588;2022-08-04T11:59:38;3.38;;;1.00;;
66970;SDS011;53901;51.466;-2.588;2022-08-04T12:04:59;4.50;;;1.08;;
66970;SDS011;53901;51.466;-2.588;2022-08-04T12:10:29;3.45;;;0.88;;
66970;SDS011;53901;51.466;-2.588;2022-08-04T12:13:04;2.40;;;0.80;;
66970;SDS011;53901;51.466;-2.588;2022-08-04T12:15:38;6.28;;;1.20;;
66970;SDS011;53901;51.466;-2.588;2022-08-04T12:20:48;4.75;;;0.95;;
66970;SDS011;53901;51.466;-2.588;2022-08-04T12:23:23;2.05;;;0.77;;
66970;SDS011;53901;51.466;-2.588;2022-08-04T12:25:52;3.60;;;0.80;;
66970;SDS011;53901;51.466;-2.588;2022-08-04T12:28:21;4.47;;;1.00;;
66970;SDS011;53901;51.466;-2.588;2022-08-04T12:31:34;1.63;;;0.75;;
66970;SDS011;53901;51.466;-2.588;2022-08-04T12:33:56;2.63;;;0.73;;
66970;SDS011;53901;51.466;-2.588;2022-08-04T12:36:39;1.92;;;0.90;;
66970;SDS011;53901;51.466;-2.588;2022-08-04T12:39:11;2.67;;;0.90;;
66970;SDS011;53901;51.466;-2.588;2022-08-04T12:41:41;1.90;;;0.85;;
66970;SDS011;53901;51.466;-2.588;2022-08-04T12:44:12;1.60;;;0.70;;
66970;SDS011;53901;51.466;-2.588;2022-08-04T12:46:38;2.03;;;0.70;;
66970;SDS011;53901;51.466;-2.588;2022-08-04T12:49:05;2.92;;;0.70;;
66970;SDS011;53901;51.466;-2.588;2022-08-04T12:51:38;9.10;;;1.00;;
66970;SDS011;53901;51.466;-2.588;2022-08-04T12:54:07;2.38;;;0.80;;
66970;SDS011;53901;51.466;-2.588;2022-08-04T12:56:34;3.53;;;0.80;;
66970;SDS011;53901;51.466;-2.588;2022-08-04T12:59:05;3.67;;;0.90;;
66970;SDS011;53901;51.466;-2.588;2022-08-04T13:01:31;2.40;;;0.73;;
66970;SDS011;53901;51.466;-2.588;2022-08-04T13:03:59;3.80;;;0.82;;
66970;SDS011;53901;51.466;-2.588;2022-08-04T13:06:29;2.58;;;0.80;;
66970;SDS011;53901;51.466;-2.588;2022-08-04T13:09:01;3.45;;;0.70;;
66970;SDS011;53901;51.466;-2.588;2022-08-04T13:11:40;3.40;;;0.95;;
66970;SDS011;53901;51.466;-2.588;2022-08-04T13:14:07;1.50;;;0.80;;
66970;SDS011;53901;51.466;-2.588;2022-08-04T13:16:34;5.50;;;0.85;;
66970;SDS011;53901;51.466;-2.588;2022-08-04T13:19:00;1.50;;;0.60;;
66970;SDS011;53901;51.466;-2.588;2022-08-04T13:21:27;3.17;;;0.98;;
66970;SDS011;53901;51.466;-2.588;2022-08-04T13:24:00;2.03;;;0.70;;
66970;SDS011;53901;51.466;-2.588;2022-08-04T13:26:28;2.88;;;0.70;;
66970;SDS011;53901;51.466;-2.588;2022-08-04T13:28:54;1.85;;;0.63;;
66970;SDS011;53901;51.466;-2.588;2022-08-04T13:31:25;3.67;;;0.90;;
66970;SDS011;53901;51.466;-2.588;2022-08-04T13:34:01;3.53;;;0.82;;
66970;SDS011;53901;51.466;-2.588;2022-08-04T13:36:29;2.30;;;0.75;;
66970;SDS011;53901;51.466;-2.588;2022-08-04T13:39:01;2.35;;;0.88;;
66970;SDS011;53901;51.466;-2.588;2022-08-04T13:41:38;3.72;;;0.90;;
66970;SDS011;53901;51.466;-2.588;2022-08-04T13:44:08;3.50;;;0.60;;
66970;SDS011;53901;51.466;-2.588;2022-08-04T13:46:36;6.22;;;1.25;;
66970;SDS011;53901;51.466;-2.588;2022-08-04T13:49:06;2.55;;;0.80;;
66970;SDS011;53901;51.466;-2.588;2022-08-04T13:51:35;2.25;;;0.80;;
66970;SDS011;53901;51.466;-2.588;2022-08-04T13:54:01;6.05;;;1.08;;
66970;SDS011;53901;51.466;-2.588;2022-08-04T13:56:43;3.22;;;1.15;;
66970;SDS011;53901;51.466;-2.588;2022-08-04T13:59:10;2.30;;;0.80;;
66970;SDS011;53901;51.466;-2.588;2022-08-04T14:01:43;4.00;;;0.80;;
66970;SDS011;53901;51.466;-2.588;2022-08-04T14:04:22;2.25;;;0.77;;
66970;SDS011;53901;51.466;-2.588;2022-08-04T14:06:52;2.33;;;0.68;;
66970;SDS011;53901;51.466;-2.588;2022-08-04T14:09:23;1.90;;;0.70;;
66970;SDS011;53901;51.466;-2.588;2022-08-04T14:11:50;1.02;;;0.50;;
66970;SDS011;53901;51.466;-2.588;2022-08-04T14:14:21;2.40;;;0.80;;
66970;SDS011;53901;51.466;-2.588;2022-08-04T14:19:26;2.00;;;0.70;;
66970;SDS011;53901;51.466;-2.588;2022-08-04T14:21:53;0.98;;;0.50;;
66970;SDS011;53901;51.466;-2.588;2022-08-04T14:24:25;2.70;;;0.73;;
66970;SDS011;53901;51.466;-2.588;2022-08-04T14:26:52;2.05;;;0.70;;
66970;SDS011;53901;51.466;-2.588;2022-08-04T14:29:18;3.50;;;1.05;;
66970;SDS011;53901;51.466;-2.588;2022-08-04T14:31:47;4.45;;;0.80;;
66970;SDS011;53901;51.466;-2.588;2022-08-04T14:34:27;2.33;;;0.70;;
66970;SDS011;53901;51.466;-2.588;2022-08-04T14:36:53;1.50;;;0.70;;
66970;SDS011;53901;51.466;-2.588;2022-08-04T14:42:08;4.18;;;0.88;;
66970;SDS011;53901;51.466;-2.588;2022-08-04T14:44:50;3.35;;;0.70;;
66970;SDS011;53901;51.466;-2.588;2022-08-04T14:50:05;1.90;;;0.70;;
66970;SDS011;53901;51.466;-2.588;2022-08-04T14:52:32;1.75;;;0.60;;
66970;SDS011;53901;51.466;-2.588;2022-08-04T14:54:57;4.20;;;0.70;;
66970;SDS011;53901;51.466;-2.588;2022-08-04T14:57:23;3.15;;;0.55;;
66970;SDS011;53901;51.466;-2.588;2022-08-04T14:59:48;1.10;;;0.50;;
66970;SDS011;53901;51.466;-2.588;2022-08-04T15:02:14;2.22;;;0.70;;
66970;SDS011;53901;51.466;-2.588;2022-08-04T15:04:41;3.72;;;0.60;;
66970;SDS011;53901;51.466;-2.588;2022-08-04T15:07:08;2.22;;;0.60;;
66970;SDS011;53901;51.466;-2.588;2022-08-04T15:09:33;2.50;;;0.60;;
66970;SDS011;53901;51.466;-2.588;2022-08-04T15:11:59;1.30;;;0.70;;
66970;SDS011;53901;51.466;-2.588;2022-08-04T15:14:25;1.17;;;0.50;;
66970;SDS011;53901;51.466;-2.588;2022-08-04T15:16:51;3.45;;;0.70;;
66970;SDS011;53901;51.466;-2.588;2022-08-04T15:19:17;2.10;;;0.70;;
66970;SDS011;53901;51.466;-2.588;2022-08-04T15:21:43;1.55;;;0.60;;
66970;SDS011;53901;51.466;-2.588;2022-08-04T15:24:09;1.48;;;0.50;;
66970;SDS011;53901;51.466;-2.588;2022-08-04T15:26:37;2.58;;;0.70;;
66970;SDS011;53901;51.466;-2.588;2022-08-04T15:29:26;3.90;;;0.88;;
66970;SDS011;53901;51.466;-2.588;2022-08-04T15:31:54;1.70;;;0.70;;
66970;SDS011;53901;51.466;-2.588;2022-08-04T15:34:21;2.60;;;0.70;;
66970;SDS011;53901;51.466;-2.588;2022-08-04T15:36:57;1.10;;;0.50;;
66970;SDS011;53901;51.466;-2.588;2022-08-04T15:39:37;1.25;;;0.68;;
66970;SDS011;53901;51.466;-2.588;2022-08-04T15:42:26;1.83;;;0.52;;
66970;SDS011;53901;51.466;-2.588;2022-08-04T15:45:10;0.88;;;0.50;;
66970;SDS011;53901;51.466;-2.588;2022-08-04T15:47:37;1.38;;;0.57;;
66970;SDS011;53901;51.466;-2.588;2022-08-04T15:50:08;3.00;;;0.70;;
66970;SDS011;53901;51.466;-2.588;2022-08-04T15:55:32;3.10;;;0.43;;
66970;SDS011;53901;51.466;-2.588;2022-08-04T15:58:14;3.10;;;0.50;;
66970;SDS011;53901;51.466;-2.588;2022-08-04T16:11:17;1.30;;;0.60;;
66970;SDS011;53901;51.466;-2.588;2022-08-04T16:22:00;1.73;;;0.70;;
66970;SDS011;53901;51.466;-2.588;2022-08-04T16:27:01;1.95;;;0.70;;
66970;SDS011;53901;51.466;-2.588;2022-08-04T16:36:59;3.30;;;0.75;;
66970;SDS011;53901;51.466;-2.588;2022-08-04T16:39:26;1.42;;;0.60;;
66970;SDS011;53901;51.466;-2.588;2022-08-04T16:41:51;3.42;;;0.60;;
66970;SDS011;53901;51.466;-2.588;2022-08-04T16:44:30;1.63;;;0.80;;
66970;SDS011;53901;51.466;-2.588;2022-08-04T16:46:58;2.63;;;0.65;;
66970;SDS011;53901;51.466;-2.588;2022-08-04T16:49:25;1.98;;;0.45;;
66970;SDS011;53901;51.466;-2.588;2022-08-04T16:51:51;1.20;;;0.60;;
66970;SDS011;53901;51.466;-2.588;2022-08-04T16:54:18;1.48;;;0.60;;
66970;SDS011;53901;51.466;-2.588;2022-08-04T16:56:43;2.22;;;0.75;;
66970;SDS011;53901;51.466;-2.588;2022-08-04T16:59:11;1.45;;;0.60;;
66970;SDS011;53901;51.466;-2.588;2022-08-04T17:01:43;2.75;;;1.40;;
66970;SDS011;53901;51.466;-2.588;2022-08-04T17:09:05;1.95;;;0.95;;
66970;SDS011;53901;51.466;-2.588;2022-08-04T17:11:34;3.80;;;0.80;;
66970;SDS011;53901;51.466;-2.588;2022-08-04T17:14:00;3.72;;;1.35;;
66970;SDS011;53901;51.466;-2.588;2022-08-04T17:16:28;0.95;;;0.52;;
66970;SDS011;53901;51.466;-2.588;2022-08-04T17:18:53;4.30;;;0.93;;
66970;SDS011;53901;51.466;-2.588;2022-08-04T17:21:27;6.65;;;3.00;;
66970;SDS011;53901;51.466;-2.588;2022-08-04T17:23:54;3.78;;;1.25;;
66970;SDS011;53901;51.466;-2.588;2022-08-04T17:26:23;28.45;;;14.55;;
66970;SDS011;53901;51.466;-2.588;2022-08-04T17:28:54;2.13;;;1.48;;
66970;SDS011;53901;51.466;-2.588;2022-08-04T17:31:21;2.42;;;1.30;;
66970;SDS011;53901;51.466;-2.588;2022-08-04T17:33:49;1.83;;;1.00;;
66970;SDS011;53901;51.466;-2.588;2022-08-04T17:36:22;5.35;;;1.02;;
66970;SDS011;53901;51.466;-2.588;2022-08-04T17:38:54;3.03;;;1.60;;
66970;SDS011;53901;51.466;-2.588;2022-08-04T17:41:22;3.15;;;1.10;;
66970;SDS011;53901;51.466;-2.588;2022-08-04T17:43:57;2.55;;;1.00;;
66970;SDS011;53901;51.466;-2.588;2022-08-04T17:49:03;2.67;;;1.10;;
66970;SDS011;53901;51.466;-2.588;2022-08-04T17:51:33;1.38;;;0.80;;
66970;SDS011;53901;51.466;-2.588;2022-08-04T17:54:20;2.97;;;0.90;;
66970;SDS011;53901;51.466;-2.588;2022-08-04T17:56:54;3.08;;;1.10;;
66970;SDS011;53901;51.466;-2.588;2022-08-04T17:59:22;4.07;;;1.17;;
66970;SDS011;53901;51.466;-2.588;2022-08-04T18:12:22;5.70;;;1.92;;
66970;SDS011;53901;51.466;-2.588;2022-08-04T18:15:02;3.83;;;1.65;;
66970;SDS011;53901;51.466;-2.588;2022-08-04T18:20:13;2.42;;;1.10;;
66970;SDS011;53901;51.466;-2.588;2022-08-04T18:22:40;2.33;;;1.20;;
66970;SDS011;53901;51.466;-2.588;2022-08-04T18:25:06;3.85;;;1.50;;
66970;SDS011;53901;51.466;-2.588;2022-08-04T18:27:33;7.18;;;1.10;;
66970;SDS011;53901;51.466;-2.588;2022-08-04T18:29:58;6.43;;;2.22;;
66970;SDS011;53901;51.466;-2.588;2022-08-04T18:32:26;3.30;;;1.05;;
66970;SDS011;53901;51.466;-2.588;2022-08-04T18:34:53;3.50;;;2.22;;
66970;SDS011;53901;51.466;-2.588;2022-08-04T18:37:19;3.90;;;1.58;;
66970;SDS011;53901;51.466;-2.588;2022-08-04T18:39:44;2.80;;;1.60;;
66970;SDS011;53901;51.466;-2.588;2022-08-04T18:42:10;3.42;;;1.20;;
66970;SDS011;53901;51.466;-2.588;2022-08-04T18:44:36;4.03;;;1.55;;
66970;SDS011;53901;51.466;-2.588;2022-08-04T18:47:02;4.38;;;2.58;;
66970;SDS011;53901;51.466;-2.588;2022-08-04T18:49:28;9.80;;;4.95;;
66970;SDS011;53901;51.466;-2.588;2022-08-04T18:51:55;5.10;;;1.50;;
66970;SDS011;53901;51.466;-2.588;2022-08-04T18:54:21;3.92;;;1.30;;
66970;SDS011;53901;51.466;-2.588;2022-08-04T18:56:53;6.28;;;1.55;;
66970;SDS011;53901;51.466;-2.588;2022-08-04T18:59:19;2.72;;;1.40;;
66970;SDS011;53901;51.466;-2.588;2022-08-04T19:01:46;5.15;;;1.60;;
66970;SDS011;53901;51.466;-2.588;2022-08-04T19:04:11;3.42;;;1.30;;
66970;SDS011;53901;51.466;-2.588;2022-08-04T19:06:37;4.00;;;1.70;;
66970;SDS011;53901;51.466;-2.588;2022-08-04T19:09:05;5.75;;;1.80;;
66970;SDS011;53901;51.466;-2.588;2022-08-04T19:11:31;4.13;;;1.83;;
66970;SDS011;53901;51.466;-2.588;2022-08-04T19:13:57;4.22;;;1.30;;
66970;SDS011;53901;51.466;-2.588;2022-08-04T19:16:26;2.72;;;1.35;;
66970;SDS011;53901;51.466;-2.588;2022-08-04T19:18:53;4.95;;;1.42;;
66970;SDS011;53901;51.466;-2.588;2022-08-04T19:21:18;4.05;;;1.80;;
66970;SDS011;53901;51.466;-2.588;2022-08-04T19:23:44;3.00;;;1.20;;
66970;SDS011;53901;51.466;-2.588;2022-08-04T19:26:09;7.53;;;3.30;;
66970;SDS011;53901;51.466;-2.588;2022-08-04T19:28:35;8.52;;;2.55;;
66970;SDS011;53901;51.466;-2.588;2022-08-04T19:31:09;6.22;;;1.65;;
66970;SDS011;53901;51.466;-2.588;2022-08-04T19:33:36;5.75;;;1.30;;
66970;SDS011;53901;51.466;-2.588;2022-08-04T19:36:03;2.63;;;1.20;;
66970;SDS011;53901;51.466;-2.588;2022-08-04T19:38:28;3.50;;;1.60;;
66970;SDS011;53901;51.466;-2.588;2022-08-04T19:40:54;3.88;;;1.38;;
66970;SDS011;53901;51.466;-2.588;2022-08-04T19:43:20;6.97;;;2.50;;
66970;SDS011;53901;51.466;-2.588;2022-08-04T19:45:45;14.15;;;6.20;;
66970;SDS011;53901;51.466;-2.588;2022-08-04T19:48:11;2.83;;;1.55;;
66970;SDS011;53901;51.466;-2.588;2022-08-04T19:50:37;3.30;;;1.80;;
66970;SDS011;53901;51.466;-2.588;2022-08-04T19:53:03;6.43;;;1.30;;
66970;SDS011;53901;51.466;-2.588;2022-08-04T19:55:29;4.97;;;2.30;;
66970;SDS011;53901;51.466;-2.588;2022-08-04T19:57:56;3.95;;;1.67;;
66970;SDS011;53901;51.466;-2.588;2022-08-04T20:00:25;4.32;;;1.20;;
66970;SDS011;53901;51.466;-2.588;2022-08-04T20:02:51;6.28;;;3.15;;
66970;SDS011;53901;51.466;-2.588;2022-08-04T20:05:16;8.57;;;4.80;;
66970;SDS011;53901;51.466;-2.588;2022-08-04T20:07:42;8.13;;;3.10;;